Time;durP1;ratioP1;P1;durP2;ratioP2;P2;SDS_P1;SDS_P2;PMS_P1;PMS_P2;Temp;Humidity;BMP_temperature;BMP_pressure;BME280_temperature;BME280_humidity;BME280_pressure;Samples;Min_cycle;Max_cycle;Signal;HPM_P1;HPM_P2
2021/12/14 00:01:31;;;;;;;90.15;45.80;;;;;;;2.76;80.99;102267.50;1757672;81;21932;-85
2021/12/14 00:04:02;;;;;;;91.65;45.60;;;;;;;2.77;81.06;102266.34;1757030;81;21524;-85
2021/12/14 00:06:30;;;;;;;89.58;47.15;;;;;;;2.76;81.10;102259.70;1756952;81;21218;-85
2021/12/14 00:08:58;;;;;;;87.08;45.73;;;;;;;2.78;81.16;102260.37;1757411;81;21058;-84
2021/12/14 00:12:06;;;;;;;86.95;45.33;;;;;;;2.77;81.15;102257.64;1757486;80;21559;-84
2021/12/14 00:14:13;;;;;;;88.05;46.85;;;;;;;2.76;81.20;102251.91;1755369;81;21767;-84
2021/12/14 00:16:26;;;;;;;89.60;47.65;;;;;;;2.75;81.28;102251.00;1756082;81;21034;-85
2021/12/14 00:18:53;;;;;;;89.40;46.13;;;;;;;2.75;81.32;102249.70;1758176;81;21607;-85
2021/12/14 00:21:28;;;;;;;93.50;47.10;;;;;;;2.75;81.42;102243.20;1758011;81;21097;-85
2021/12/14 00:24:11;;;;;;;85.47;45.40;;;;;;;2.75;81.34;102244.51;1758371;81;21069;-85
2021/12/14 00:26:49;;;;;;;98.50;49.25;;;;;;;2.73;81.42;102246.08;1758081;81;22485;-85
2021/12/14 00:29:35;;;;;;;95.12;47.90;;;;;;;2.75;81.46;102248.41;1758480;81;21069;-86
2021/12/14 00:32:10;;;;;;;86.60;44.77;;;;;;;2.73;81.43;102251.28;1757639;81;21063;-85
2021/12/14 00:34:41;;;;;;;97.35;49.00;;;;;;;2.73;81.47;102253.48;1758009;81;21218;-85
2021/12/14 00:37:08;;;;;;;92.35;45.95;;;;;;;2.73;81.52;102258.67;1757854;80;21011;-84
2021/12/14 00:39:35;;;;;;;89.47;45.23;;;;;;;2.74;81.55;102257.01;1757637;81;21762;-85
2021/12/14 00:42:02;;;;;;;91.92;46.60;;;;;;;2.75;81.58;102260.51;1757632;81;22316;-85
2021/12/14 00:44:29;;;;;;;88.62;44.33;;;;;;;2.77;81.62;102257.64;1757470;81;21582;-85
2021/12/14 00:46:56;;;;;;;90.72;47.98;;;;;;;2.78;81.60;102252.56;1757580;81;21011;-85
2021/12/14 00:49:23;;;;;;;98.50;47.78;;;;;;;2.80;81.58;102251.39;1757480;80;21562;-85
2021/12/14 00:51:50;;;;;;;90.95;44.80;;;;;;;2.80;81.62;102256.19;1757807;81;21724;-86
2021/12/14 00:54:17;;;;;;;86.55;45.08;;;;;;;2.81;81.61;102247.59;1764231;81;21048;-85
2021/12/14 00:56:45;;;;;;;95.95;45.45;;;;;;;2.80;81.58;102246.20;1765026;81;21060;-85
2021/12/14 00:59:13;;;;;;;89.65;45.00;;;;;;;2.80;81.60;102247.09;1765035;81;21076;-85
2021/12/14 01:01:45;;;;;;;85.53;44.58;;;;;;;2.81;81.51;102238.89;1764843;81;21637;-85
2021/12/14 01:04:19;;;;;;;83.78;42.35;;;;;;;2.80;81.59;102237.09;1763527;80;21846;-88
2021/12/14 01:06:46;;;;;;;85.92;42.23;;;;;;;2.83;81.67;102238.22;1764837;81;21068;-87
2021/12/14 01:09:21;;;;;;;86.25;43.85;;;;;;;2.85;81.66;102231.47;1764865;81;21086;-87
2021/12/14 01:11:48;;;;;;;82.50;41.85;;;;;;;2.86;81.61;102225.47;1764884;81;21151;-86
2021/12/14 01:14:32;;;;;;;76.30;39.23;;;;;;;2.86;81.54;102225.47;1765005;81;21628;-86
2021/12/14 01:17:10;;;;;;;72.58;38.73;;;;;;;2.85;81.53;102234.08;1764300;81;21767;-87
2021/12/14 01:19:36;;;;;;;69.92;37.48;;;;;;;2.84;81.56;102227.05;1764549;80;21072;-85
2021/12/14 01:22:17;;;;;;;66.53;36.68;;;;;;;2.84;81.60;102228.74;1765277;81;21084;-85
2021/12/14 01:25:01;;;;;;;72.82;37.13;;;;;;;2.84;81.58;102228.34;1765055;80;21151;-84
2021/12/14 01:27:27;;;;;;;70.42;37.40;;;;;;;2.83;81.61;102227.81;1763814;81;21581;-84
2021/12/14 01:29:55;;;;;;;65.50;35.25;;;;;;;2.84;81.66;102235.25;1764206;81;21752;-84
2021/12/14 01:32:25;;;;;;;71.70;36.13;;;;;;;2.85;81.71;102239.64;1764934;81;21104;-85
2021/12/14 01:34:50;;;;;;;75.28;38.48;;;;;;;2.83;81.65;102238.22;1765113;80;21739;-85
2021/12/14 01:37:21;;;;;;;69.97;35.92;;;;;;;2.82;81.67;102231.22;1765175;81;21068;-85
2021/12/14 01:40:05;;;;;;;63.85;35.13;;;;;;;2.84;81.80;102226.14;1764806;81;21064;-84
2021/12/14 01:42:27;;;;;;;61.68;32.67;;;;;;;2.87;81.84;102224.70;1761988;80;22583;-85
2021/12/14 01:45:17;;;;;;;57.20;32.23;;;;;;;2.89;81.82;102224.42;1765389;81;21637;-87
2021/12/14 01:47:52;;;;;;;53.08;28.57;;;;;;;2.90;81.87;102218.82;1765291;81;21092;-87
2021/12/14 01:50:27;;;;;;;50.55;27.48;;;;;;;2.91;81.88;102211.55;1764977;81;21111;-87
2021/12/14 01:52:53;;;;;;;47.30;26.20;;;;;;;2.94;81.95;102212.17;1764282;80;21037;-87
2021/12/14 01:55:25;;;;;;;47.43;25.45;;;;;;;2.95;81.91;102210.06;1761921;81;21799;-87
2021/12/14 01:57:57;;;;;;;39.38;23.67;;;;;;;2.96;82.01;102200.19;1761794;81;21068;-86
2021/12/14 02:00:33;;;;;;;38.83;22.07;;;;;;;2.97;81.96;102194.22;1761920;80;21022;-87
2021/12/14 02:02:57;;;;;;;34.53;20.57;;;;;;;2.97;82.05;102191.22;1761661;80;21603;-87
2021/12/14 02:05:28;;;;;;;39.23;20.70;;;;;;;2.98;82.06;102187.81;1761882;80;21074;-87
2021/12/14 02:07:57;;;;;;;34.18;19.77;;;;;;;3.03;82.19;102189.48;1762251;81;21768;-87
2021/12/14 02:10:28;;;;;;;33.65;18.98;;;;;;;3.04;82.07;102189.98;1762447;80;21072;-87
2021/12/14 02:12:55;;;;;;;33.33;18.17;;;;;;;3.05;82.07;102191.81;1762437;81;21109;-86
2021/12/14 02:15:33;;;;;;;30.08;17.60;;;;;;;3.07;82.13;102181.13;1762227;81;21015;-87
2021/12/14 02:18:02;;;;;;;28.12;18.05;;;;;;;3.00;82.11;102161.92;1762023;81;21038;-86
2021/12/14 02:20:31;;;;;;;29.23;17.25;;;;;;;3.07;82.13;102174.23;1762575;81;22780;-87
2021/12/14 02:22:58;;;;;;;28.90;17.85;;;;;;;3.07;82.17;102169.02;1762378;81;21033;-87
2021/12/14 02:25:25;;;;;;;29.20;17.23;;;;;;;3.05;82.12;102169.70;1762182;81;20999;-85
2021/12/14 02:27:55;;;;;;;29.50;17.65;;;;;;;3.02;82.13;102163.88;1742383;81;21144;-85
2021/12/14 02:30:27;;;;;;;30.88;18.50;;;;;;;3.02;82.24;102155.14;1762511;80;21616;-85
2021/12/14 02:32:54;;;;;;;33.83;19.23;;;;;;;3.02;82.27;102148.27;1762026;80;21834;-85
2021/12/14 02:35:25;;;;;;;31.73;19.02;;;;;;;3.05;82.38;102156.70;1762249;81;21069;-84
2021/12/14 02:37:58;;;;;;;29.55;19.02;;;;;;;3.07;82.36;102148.61;1762239;81;21082;-85
2021/12/14 02:40:54;;;;;;;32.70;19.32;;;;;;;3.07;82.32;102153.81;1761898;81;21062;-85
2021/12/14 02:43:44;;;;;;;28.65;17.62;;;;;;;3.05;82.29;102151.49;1761965;81;21050;-85
2021/12/14 02:46:25;;;;;;;30.95;18.92;;;;;;;2.98;82.33;102129.69;1762087;81;22527;-86
2021/12/14 02:48:55;;;;;;;31.25;18.23;;;;;;;3.05;82.40;102139.78;1761979;80;21053;-85
2021/12/14 02:51:27;;;;;;;31.02;19.42;;;;;;;3.08;82.48;102147.44;1761920;80;21069;-85
2021/12/14 02:53:58;;;;;;;29.92;18.40;;;;;;;3.09;82.52;102141.83;1759437;81;21086;-85
2021/12/14 02:56:27;;;;;;;31.85;19.35;;;;;;;3.10;82.55;102136.75;1756978;80;21057;-85
2021/12/14 02:59:01;;;;;;;32.13;18.70;;;;;;;3.10;82.48;102138.05;1757422;81;21789;-84
2021/12/14 03:01:28;;;;;;;31.62;19.65;;;;;;;3.11;82.49;102137.25;1757269;81;21360;-84
2021/12/14 03:04:01;;;;;;;38.30;21.87;;;;;;;3.13;82.53;102129.97;1757197;81;21065;-85
2021/12/14 03:06:30;;;;;;;33.58;19.90;;;;;;;3.14;82.51;102133.10;1757392;80;22224;-85
2021/12/14 03:09:08;;;;;;;32.83;19.73;;;;;;;3.14;82.55;102134.00;1757531;81;21041;-85
2021/12/14 03:11:27;;;;;;;34.18;21.25;;;;;;;3.15;82.57;102129.28;1755417;81;21193;-85
2021/12/14 03:13:54;;;;;;;33.80;20.35;;;;;;;3.19;82.49;102136.94;1757699;81;21519;-85
2021/12/14 03:16:27;;;;;;;34.50;21.42;;;;;;;3.19;82.41;102139.17;1757788;80;21069;-84
2021/12/14 03:18:54;;;;;;;35.83;22.13;;;;;;;3.19;82.51;102136.94;1757476;81;21042;-84
2021/12/14 03:21:25;;;;;;;37.90;21.73;;;;;;;3.25;82.59;102123.12;1757218;81;21094;-86
2021/12/14 03:23:59;;;;;;;33.60;20.12;;;;;;;3.28;82.60;102115.53;1757108;81;21837;-86
2021/12/14 03:26:28;;;;;;;31.80;19.87;;;;;;;3.32;82.58;102112.36;1756929;81;21061;-86
2021/12/14 03:28:59;;;;;;;29.00;18.07;;;;;;;3.35;82.47;102111.70;1757299;81;21603;-86
2021/12/14 03:31:38;;;;;;;29.02;18.75;;;;;;;3.35;82.39;102110.41;1767251;80;21085;-86
2021/12/14 03:34:22;;;;;;;29.40;18.37;;;;;;;3.36;82.39;102104.02;1757351;81;21043;-86
2021/12/14 03:37:00;;;;;;;27.30;17.48;;;;;;;3.39;82.41;102102.03;1741685;81;21033;-86
2021/12/14 03:39:37;;;;;;;29.05;18.12;;;;;;;3.42;82.39;102101.88;1757445;81;21053;-86
2021/12/14 03:42:11;;;;;;;29.95;19.42;;;;;;;3.45;82.44;102098.22;1757648;81;21062;-84
2021/12/14 03:44:40;;;;;;;;;;;;;;;3.49;82.51;102100.25;1760063;81;21069;-84
2021/12/14 03:47:21;;;;;;;28.95;17.70;;;;;;;3.52;82.47;102097.36;1757439;81;20256;-84
2021/12/14 03:49:55;;;;;;;27.27;17.12;;;;;;;3.54;82.48;102104.48;1756992;81;21759;-85
2021/12/14 03:52:25;;;;;;;30.75;18.70;;;;;;;3.57;82.44;102100.83;1756920;81;21682;-84
2021/12/14 03:54:52;;;;;;;32.53;18.62;;;;;;;3.57;82.42;102093.42;1762804;80;21143;-84
2021/12/14 03:57:19;;;;;;;27.98;17.48;;;;;;;3.59;82.42;102091.42;1764845;81;21084;-85
2021/12/14 03:59:46;;;;;;;28.55;17.70;;;;;;;3.60;82.47;102091.02;1765156;81;21092;-85
2021/12/14 04:02:17;;;;;;;30.92;18.57;;;;;;;3.61;82.40;102085.94;1764925;81;21682;-84
2021/12/14 04:05:00;;;;;;;28.47;17.67;;;;;;;3.64;82.42;102082.64;1764370;81;21092;-86
2021/12/14 04:07:22;;;;;;;30.72;19.45;;;;;;;3.64;82.39;102083.94;1763550;81;21163;-86
2021/12/14 04:09:48;;;;;;;33.33;19.20;;;;;;;3.61;82.36;102082.03;1764959;81;21092;-86
2021/12/14 04:12:17;;;;;;;30.37;18.77;;;;;;;3.61;82.34;102085.94;1765199;81;21669;-85
2021/12/14 04:14:54;;;;;;;28.42;18.30;;;;;;;3.62;82.34;102079.95;1765237;81;21745;-85
2021/12/14 04:17:23;;;;;;;34.65;20.05;;;;;;;3.63;82.37;102083.45;1764976;81;21609;-85
2021/12/14 04:19:51;;;;;;;34.63;19.12;;;;;;;3.64;82.38;102080.03;1764608;81;21154;-85
2021/12/14 04:22:22;;;;;;;33.10;20.68;;;;;;;3.61;82.30;102080.73;1765232;81;21091;-84
2021/12/14 04:24:53;;;;;;;37.25;21.55;;;;;;;3.61;82.33;102079.83;1765362;81;21764;-85
2021/12/14 04:27:23;;;;;;;31.17;18.45;;;;;;;3.62;82.43;102076.41;1765379;81;21840;-85
2021/12/14 04:29:50;;;;;;;30.80;18.85;;;;;;;3.63;82.37;102073.93;1765287;81;21099;-85
2021/12/14 04:32:17;;;;;;;30.82;18.82;;;;;;;3.64;82.39;102059.20;1765100;81;21013;-85
2021/12/14 04:34:44;;;;;;;31.80;19.15;;;;;;;3.66;82.44;102057.62;1765544;81;21091;-85
2021/12/14 04:37:16;;;;;;;33.80;20.02;;;;;;;3.66;82.36;102060.22;1765456;81;21064;-86
2021/12/14 04:39:56;;;;;;;34.55;19.73;;;;;;;3.67;82.34;102057.73;1764686;81;22032;-85
2021/12/14 04:53:38;;;;;;;28.20;18.80;;;;;;;3.73;82.25;102037.75;1764567;80;21770;-83
2021/12/14 04:56:07;;;;;;;30.60;18.87;;;;;;;3.72;82.24;102048.05;1762891;81;21109;-81
2021/12/14 04:58:39;;;;;;;32.13;19.25;;;;;;;3.69;82.20;102046.14;1764259;81;21111;-82
2021/12/14 05:01:12;;;;;;;31.35;19.07;;;;;;;3.69;82.23;102045.73;1759690;81;21107;-82
2021/12/14 05:03:45;;;;;;;33.00;19.85;;;;;;;3.70;82.24;102034.54;1750416;81;21101;-81
2021/12/14 05:06:18;;;;;;;31.33;19.65;;;;;;;3.70;82.19;102034.94;1749473;81;22727;-82
2021/12/14 05:11:20;;;;;;;34.95;19.67;;;;;;;3.69;82.25;102043.13;1738805;82;21045;-82
2021/12/14 05:13:52;;;;;;;34.35;20.80;;;;;;;3.73;82.35;102033.84;1738663;81;21093;-82
2021/12/14 05:16:27;;;;;;;34.58;19.85;;;;;;;3.75;82.30;102032.25;1738817;82;21100;-76
2021/12/14 05:18:57;;;;;;;33.65;21.55;;;;;;;3.77;82.19;102029.77;1738599;82;21766;-76
2021/12/14 05:21:28;;;;;;;34.67;20.20;;;;;;;3.72;82.10;102025.91;1709321;82;21064;-76
2021/12/14 05:23:55;;;;;;;40.52;21.97;;;;;;;3.69;82.13;102029.21;1711683;82;21117;-76
2021/12/14 05:26:22;;;;;;;34.27;21.30;;;;;;;3.68;82.18;102027.02;1738493;82;22315;-81
2021/12/14 05:28:49;;;;;;;32.15;19.98;;;;;;;3.69;82.16;102030.52;1738992;82;21135;-84
2021/12/14 05:31:24;;;;;;;32.98;21.35;;;;;;;3.68;82.17;102030.02;1739050;82;21758;-80
2021/12/14 05:33:49;;;;;;;33.25;20.43;;;;;;;3.66;82.15;102034.18;1738589;81;21085;-81
2021/12/14 05:36:19;;;;;;;29.95;19.35;;;;;;;3.64;82.29;102022.38;1738919;82;21064;-77
2021/12/14 05:45:36;;;;;;;34.45;22.30;;;;;;;3.59;82.28;102025.44;1738139;82;22909;-82
2021/12/14 05:48:50;;;;;;;34.03;20.87;;;;;;;3.48;82.37;102010.32;1728246;81;21120;-86
2021/12/14 05:51:22;;;;;;;35.00;20.30;;;;;;;3.58;82.47;102022.31;1735478;82;21072;-85
2021/12/14 05:53:49;;;;;;;35.23;20.32;;;;;;;3.56;82.53;102015.69;1738864;81;21531;-82
2021/12/14 05:56:20;;;;;;;31.60;20.32;;;;;;;3.55;82.55;102016.86;1697583;82;21077;-82
2021/12/14 05:58:51;;;;;;;31.55;19.07;;;;;;;3.35;82.51;101985.08;1729274;82;21667;-83
2021/12/14 06:01:22;;;;;;;33.78;21.05;;;;;;;3.50;82.56;102013.53;1729358;82;21090;-82
2021/12/14 06:04:05;;;;;;;35.30;20.77;;;;;;;3.50;82.62;102011.34;1729784;82;21159;-83
2021/12/14 06:06:39;;;;;;;36.20;21.75;;;;;;;3.49;82.67;102016.02;1723426;82;21085;-83
2021/12/14 06:09:15;;;;;;;38.02;22.65;;;;;;;3.47;82.67;102021.14;1697859;82;21097;-84
2021/12/14 06:11:43;;;;;;;45.50;27.58;;;;;;;3.46;82.70;102023.22;1729546;82;21687;-83
2021/12/14 06:14:23;;;;;;;43.45;26.50;;;;;;;3.46;82.77;102014.52;1729460;82;21092;-83
2021/12/14 06:16:56;;;;;;;37.93;23.80;;;;;;;3.46;82.75;102011.50;1697476;82;21603;-83
2021/12/14 06:19:30;;;;;;;39.38;22.10;;;;;;;3.46;82.69;102005.41;1729303;82;21101;-83
2021/12/14 06:22:01;;;;;;;;;;;;;;;3.47;82.75;102003.29;1732995;82;21092;-82
2021/12/14 06:24:30;;;;;;;37.20;21.52;;;;;;;3.48;82.75;102002.11;1730188;82;21858;-83
2021/12/14 06:27:02;;;;;;;35.05;22.62;;;;;;;3.49;82.65;102004.30;1697935;82;22248;-83
2021/12/14 06:29:38;;;;;;;37.40;21.27;;;;;;;3.46;82.63;102005.00;1730086;82;21072;-90
2021/12/14 06:32:16;;;;;;;34.13;21.48;;;;;;;3.47;82.75;102000.69;1730321;82;21548;-83
2021/12/14 06:34:56;;;;;;;37.33;23.52;;;;;;;3.51;82.81;102010.56;1729961;82;21097;-83
2021/12/14 06:40:18;;;;;;;36.93;21.80;;;;;;;3.50;82.66;102010.93;1734212;82;21097;-81
2021/12/14 06:42:55;;;;;;;38.88;24.18;;;;;;;3.48;82.62;102006.02;1730172;82;21134;-81
2021/12/14 06:45:26;;;;;;;40.78;23.98;;;;;;;3.47;82.68;102005.52;1730396;82;21018;-81
2021/12/14 06:48:03;;;;;;;36.45;22.93;;;;;;;3.47;82.71;102005.52;1728237;82;21749;-81
2021/12/14 06:50:33;;;;;;;39.35;23.40;;;;;;;3.51;82.73;102002.75;1729307;82;21810;-81
2021/12/14 06:53:02;;;;;;;46.68;30.12;;;;;;;3.54;82.77;102001.65;1729641;82;21069;-81
2021/12/14 06:55:33;;;;;;;49.08;29.20;;;;;;;3.55;82.70;102000.88;1720852;82;21699;-81
2021/12/14 06:58:16;;;;;;;40.00;26.35;;;;;;;3.56;82.72;102006.98;1716450;83;21098;-80
2021/12/14 07:00:51;;;;;;;48.90;31.12;;;;;;;3.58;82.68;102006.28;1717042;83;21170;-81
2021/12/14 07:03:17;;;;;;;42.00;26.62;;;;;;;3.60;82.69;102011.61;1715542;82;21445;-82
2021/12/14 07:05:48;;;;;;;44.30;27.00;;;;;;;3.60;82.63;102020.72;1716972;83;21089;-80
2021/12/14 07:08:22;;;;;;;42.10;25.45;;;;;;;3.61;82.63;102022.14;1717150;83;21638;-81
2021/12/14 07:10:47;;;;;;;43.20;29.77;;;;;;;3.61;82.58;102027.35;1716920;83;21826;-81
2021/12/14 07:13:21;;;;;;;43.70;27.80;;;;;;;3.64;82.65;102032.80;1690467;83;21073;-80
2021/12/14 07:15:51;;;;;;;39.13;24.77;;;;;;;3.68;82.65;102030.92;1717023;83;21760;-81
2021/12/14 07:18:26;;;;;;;38.25;25.20;;;;;;;3.73;82.68;102031.64;1716375;83;22458;-81
2021/12/14 07:20:53;;;;;;;37.20;24.63;;;;;;;3.75;82.61;102028.34;1715787;83;21085;-81
2021/12/14 07:23:33;;;;;;;40.65;25.60;;;;;;;3.78;82.63;102033.80;1716909;83;22202;-81
2021/12/14 07:26:07;;;;;;;37.73;23.50;;;;;;;3.79;82.66;102033.02;1717113;83;21125;-81
2021/12/14 07:28:38;;;;;;;32.45;21.68;;;;;;;3.81;82.72;102030.50;1717159;82;21761;-81
2021/12/14 07:31:18;;;;;;;34.78;22.82;;;;;;;3.83;82.71;102025.92;1716920;83;21151;-81
2021/12/14 07:33:56;;;;;;;37.00;23.45;;;;;;;3.83;82.66;102029.83;1716824;83;21136;-81
2021/12/14 07:36:32;;;;;;;34.78;22.02;;;;;;;3.82;82.70;102022.80;1688213;84;21206;-81
2021/12/14 07:39:10;;;;;;;38.28;22.20;;;;;;;3.84;82.74;102020.31;1688359;84;21360;-81
2021/12/14 07:41:50;;;;;;;38.10;22.80;;;;;;;3.84;82.75;102021.61;1688520;84;21940;-81
2021/12/14 07:44:20;;;;;;;40.70;23.70;;;;;;;3.87;82.79;102016.64;1674290;85;21697;-81
2021/12/14 07:47:15;;;;;;;38.83;22.77;;;;;;;3.74;82.77;101990.50;1675203;85;21143;-81
2021/12/14 07:49:54;;;;;;;33.20;22.40;;;;;;;3.92;82.78;102016.55;1675686;85;21158;-81
2021/12/14 07:52:21;;;;;;;36.23;22.10;;;;;;;3.94;82.76;102021.50;1675358;84;21080;-81
2021/12/14 07:55:00;;;;;;;34.85;21.05;;;;;;;3.96;82.77;102016.37;1682816;83;21789;-81
2021/12/14 07:57:30;;;;;;;38.20;23.45;;;;;;;3.98;82.70;102010.88;1710534;83;21136;-81
2021/12/14 08:00:22;;;;;;;36.77;22.75;;;;;;;4.03;82.72;102012.11;1715539;83;21126;-81
2021/12/14 08:02:53;;;;;;;36.75;22.77;;;;;;;4.06;82.64;102013.66;1715413;82;21121;-82
2021/12/14 08:05:29;;;;;;;39.25;23.18;;;;;;;4.06;82.59;102018.86;1714397;83;21112;-81
2021/12/14 08:08:15;;;;;;;36.45;22.73;;;;;;;4.07;82.55;102012.84;1715120;83;21805;-81
2021/12/14 08:10:44;;;;;;;37.70;22.17;;;;;;;4.08;82.54;102012.95;1714856;83;21118;-81
2021/12/14 08:13:21;;;;;;;36.53;21.62;;;;;;;4.07;82.46;102015.07;1715547;83;21096;-81
2021/12/14 08:15:58;;;;;;;37.67;22.60;;;;;;;4.05;82.44;102011.83;1715547;82;21444;-81
2021/12/14 08:18:28;;;;;;;38.60;22.45;;;;;;;4.07;82.50;102008.93;1715604;83;21070;-81
2021/12/14 08:21:15;;;;;;;35.03;22.85;;;;;;;4.08;82.51;102010.34;1715689;83;21744;-80
2021/12/14 08:23:57;;;;;;;35.28;22.37;;;;;;;4.11;82.46;102008.75;1715190;83;21125;-81
2021/12/14 08:26:32;;;;;;;39.55;23.15;;;;;;;4.14;82.51;102015.09;1715370;83;21100;-81
2021/12/14 08:29:13;;;;;;;36.68;22.32;;;;;;;4.16;82.52;102013.49;1715455;83;21095;-81
2021/12/14 08:31:51;;;;;;;38.70;25.35;;;;;;;4.20;82.54;102013.31;1714964;83;21065;-81
2021/12/14 08:34:22;;;;;;;34.92;21.48;;;;;;;4.23;82.44;102009.64;1715370;83;21772;-81
2021/12/14 08:36:56;;;;;;;34.05;21.62;;;;;;;4.22;82.49;102007.44;1715893;83;21073;-81
2021/12/14 08:39:27;;;;;;;38.63;23.10;;;;;;;4.25;82.46;102011.95;1715005;83;21101;-82
2021/12/14 08:42:17;;;;;;;38.90;22.87;;;;;;;4.26;82.43;102009.45;1715777;83;21097;-82
2021/12/14 08:44:52;;;;;;;37.50;22.25;;;;;;;4.28;82.51;102009.17;1715464;83;21140;-81
2021/12/14 08:47:34;;;;;;;38.25;23.07;;;;;;;4.34;82.49;102011.70;1715392;82;21904;-81
2021/12/14 08:50:04;;;;;;;46.00;23.32;;;;;;;4.39;82.47;102015.52;1714293;83;21069;-80
2021/12/14 08:52:31;;;;;;;36.63;21.65;;;;;;;4.42;82.46;102019.25;1715653;83;21069;-81
2021/12/14 08:55:01;;;;;;;40.00;25.60;;;;;;;4.49;82.49;102016.69;1716170;83;21069;-81
2021/12/14 08:57:29;;;;;;;42.05;24.50;;;;;;;4.54;82.45;102011.37;1720607;83;21081;-81
2021/12/14 09:00:01;;;;;;;61.55;40.85;;;;;;;4.62;82.50;102017.14;1721075;83;21775;-81
2021/12/14 09:02:30;;;;;;;40.78;30.35;;;;;;;4.68;82.43;102018.86;1721448;83;21073;-81
2021/12/14 09:05:01;;;;;;;39.70;30.50;;;;;;;4.76;82.48;102015.48;1720841;83;21038;-81
2021/12/14 09:07:32;;;;;;;36.45;32.55;;;;;;;4.83;82.39;102011.19;1720388;83;21096;-81
2021/12/14 09:09:58;;;;;;;24.47;19.65;;;;;;;4.92;82.47;102012.20;1720316;83;21168;-81
2021/12/14 09:12:34;;;;;;;27.35;20.48;;;;;;;5.05;82.56;102013.56;1720862;83;21662;-81
2021/12/14 09:15:09;;;;;;;34.92;26.70;;;;;;;5.17;82.53;102018.28;1720752;83;21629;-81
2021/12/14 09:17:35;;;;;;;35.20;25.92;;;;;;;5.28;82.38;102015.50;1720984;83;21057;-81
2021/12/14 09:20:08;;;;;;;28.02;20.20;;;;;;;5.38;82.24;102017.91;1720711;83;21484;-81
2021/12/14 09:22:41;;;;;;;30.37;22.87;;;;;;;5.46;82.24;102012.78;1721081;83;21084;-81
2021/12/14 09:25:11;;;;;;;36.40;26.25;;;;;;;5.42;81.94;101988.58;1720735;83;22707;-80
2021/12/14 09:27:38;;;;;;;44.05;33.02;;;;;;;5.57;81.86;101997.41;1720786;83;21053;-81
2021/12/14 09:30:06;;;;;;;37.38;26.97;;;;;;;5.63;81.76;101990.00;1721089;83;21564;-81
2021/12/14 09:32:34;;;;;;;35.25;26.57;;;;;;;5.71;81.74;101994.41;1721249;83;21663;-81
2021/12/14 09:35:02;;;;;;;34.75;23.87;;;;;;;5.79;81.60;101984.03;1721211;83;21599;-81
2021/12/14 09:37:31;;;;;;;34.00;22.13;;;;;;;5.85;81.42;101978.30;1721078;83;21769;-80
2021/12/14 09:40:01;;;;;;;33.00;24.80;;;;;;;5.89;81.28;101975.48;1720848;83;21572;-81
2021/12/14 09:42:32;;;;;;;29.57;20.95;;;;;;;5.95;81.29;101975.86;1719646;83;21076;-80
2021/12/14 09:45:04;;;;;;;33.13;22.37;;;;;;;6.03;81.29;101981.22;1720820;83;21278;-80
2021/12/14 09:47:31;;;;;;;32.53;22.55;;;;;;;6.07;81.10;101984.52;1720403;83;21069;-80
2021/12/14 09:50:00;;;;;;;34.43;24.32;;;;;;;6.08;80.92;101986.73;1721080;83;21752;-81
2021/12/14 09:52:30;;;;;;;33.63;22.48;;;;;;;6.08;80.88;101984.11;1721088;83;21061;-81
2021/12/14 09:54:57;;;;;;;35.63;22.95;;;;;;;6.11;80.88;101974.75;1720928;83;21062;-81
2021/12/14 09:57:40;;;;;;;33.08;21.52;;;;;;;6.12;80.66;101977.88;1720664;83;21101;-81
2021/12/14 10:00:13;;;;;;;33.23;22.32;;;;;;;6.06;80.46;101968.33;1721019;83;21093;-81
2021/12/14 10:02:40;;;;;;;31.02;21.42;;;;;;;5.98;80.18;101969.16;1719965;82;21794;-81
2021/12/14 10:05:18;;;;;;;30.88;20.72;;;;;;;5.91;80.20;101969.56;1720920;83;21535;-81
2021/12/14 10:07:46;;;;;;;30.48;19.52;;;;;;;5.88;80.23;101973.69;1721064;83;21132;-81
2021/12/14 10:10:15;;;;;;;29.23;18.90;;;;;;;5.87;80.38;101966.23;1721075;83;21121;-81
2021/12/14 10:12:50;;;;;;;29.27;19.77;;;;;;;5.90;80.47;101963.83;1721050;83;21121;-81
2021/12/14 10:15:41;;;;;;;31.50;21.65;;;;;;;5.90;80.36;101961.21;1720996;83;21821;-80
2021/12/14 10:18:22;;;;;;;29.72;20.20;;;;;;;5.88;80.27;101961.52;1721067;83;21003;-81
2021/12/14 10:20:59;;;;;;;31.48;22.32;;;;;;;5.86;80.37;101964.44;1720545;83;21092;-81
2021/12/14 10:23:26;;;;;;;33.75;23.42;;;;;;;5.88;80.37;101954.98;1720795;83;21144;-81
2021/12/14 10:25:52;;;;;;;33.55;22.45;;;;;;;5.89;80.35;101957.19;1720773;83;21073;-83
2021/12/14 10:28:19;;;;;;;34.98;23.22;;;;;;;5.89;80.29;101952.86;1720692;83;21931;-80
2021/12/14 10:30:56;;;;;;;40.12;23.77;;;;;;;5.90;80.35;101956.39;1720665;83;21387;-80
2021/12/14 10:33:23;;;;;;;36.17;24.70;;;;;;;5.89;80.29;101956.77;1720753;83;21210;-81
2021/12/14 10:35:55;;;;;;;36.05;24.23;;;;;;;5.91;80.27;101952.58;1720294;83;21076;-80
2021/12/14 10:38:31;;;;;;;38.70;23.45;;;;;;;5.93;80.30;101950.97;1721018;83;21136;-81
2021/12/14 10:43:48;;;;;;;33.88;23.35;;;;;;;6.04;80.28;101955.56;1688296;84;21091;-81
2021/12/14 10:46:20;;;;;;;33.53;22.17;;;;;;;6.12;80.45;101963.51;1688475;84;21114;-81
2021/12/14 10:48:49;;;;;;;33.15;23.30;;;;;;;6.19;80.31;101968.31;1700435;83;21132;-81
2021/12/14 10:51:18;;;;;;;35.13;22.45;;;;;;;6.18;80.08;101963.88;1721054;83;21097;-81
2021/12/14 10:53:47;;;;;;;30.08;20.82;;;;;;;6.16;80.05;101962.88;1721028;83;21982;-81
2021/12/14 10:56:21;;;;;;;32.10;21.42;;;;;;;6.15;79.87;101957.55;1720961;83;21065;-81
2021/12/14 10:58:52;;;;;;;31.05;20.35;;;;;;;6.08;79.75;101948.45;1720565;83;21186;-81
2021/12/14 11:01:26;;;;;;;28.07;19.52;;;;;;;6.07;79.82;101941.80;1720953;83;21660;-81
2021/12/14 11:03:53;;;;;;;37.40;25.05;;;;;;;6.08;79.88;101934.45;1720508;82;21100;-79
2021/12/14 11:06:27;;;;;;;38.20;25.02;;;;;;;6.08;79.87;101935.37;1721287;82;21824;-81
2021/12/14 11:11:50;;;;;;;44.30;27.80;;;;;;;6.20;80.01;101945.68;1720670;83;21266;-81
2021/12/14 11:14:22;;;;;;;37.42;22.25;;;;;;;6.15;79.70;101934.92;1720797;83;21117;-81
2021/12/14 11:19:55;;;;;;;28.20;18.90;;;;;;;6.04;79.66;101921.59;1720349;83;21896;-81
2021/12/14 11:22:26;;;;;;;33.45;19.67;;;;;;;6.07;79.75;101907.41;1720834;83;21654;-81
2021/12/14 11:25:00;;;;;;;33.18;21.10;;;;;;;6.16;79.91;101905.38;1720739;83;21198;-81
2021/12/14 11:27:29;;;;;;;;;;;;;;;6.27;79.87;101908.65;1723606;83;21073;-81
2021/12/14 11:30:22;;;;;;;36.33;19.37;;;;;;;6.31;79.79;101902.79;1720870;83;20231;-81
2021/12/14 11:33:19;;;;;;;29.87;18.52;;;;;;;6.29;79.49;101908.71;1721160;83;21734;-81
2021/12/14 11:36:03;;;;;;;24.72;17.42;;;;;;;6.28;79.51;101903.00;1720720;83;21650;-81
2021/12/14 11:38:39;;;;;;;;;;;;;;;6.26;79.46;101902.02;1721007;83;21093;-81
2021/12/14 11:41:35;;;;;;;23.18;16.40;;;;;;;6.24;79.40;101904.53;1720984;83;20597;-81
2021/12/14 11:44:24;;;;;;;30.17;20.55;;;;;;;6.25;79.45;101902.42;1720978;82;21530;-81
2021/12/14 11:46:59;;;;;;;40.70;27.07;;;;;;;6.26;79.50;101907.23;1710429;83;21766;-81
2021/12/14 11:49:43;;;;;;;39.08;25.27;;;;;;;6.26;79.47;101905.52;1720958;83;21038;-81
2021/12/14 11:52:10;;;;;;;32.83;23.02;;;;;;;6.24;79.45;101903.22;1720997;83;21047;-81
2021/12/14 11:54:44;;;;;;;27.22;19.42;;;;;;;6.24;79.49;101901.91;1720782;83;21128;-80
2021/12/14 11:57:12;;;;;;;30.95;21.07;;;;;;;6.23;79.46;101907.55;1718964;83;21512;-81
2021/12/14 11:59:39;;;;;;;29.42;19.32;;;;;;;6.22;79.40;101902.23;1704432;84;21834;-81
2021/12/14 12:02:06;;;;;;;40.95;23.25;;;;;;;6.18;79.45;101897.21;1704408;84;21080;-81
2021/12/14 12:04:35;;;;;;;37.70;23.15;;;;;;;6.18;79.50;101897.21;1734387;82;21014;-80
2021/12/14 12:09:44;;;;;;;28.42;18.02;;;;;;;6.16;79.61;101893.61;1734815;82;21021;-83
2021/12/14 12:12:25;;;;;;;27.80;20.75;;;;;;;6.22;79.66;101887.84;1734674;82;21759;-81
2021/12/14 12:15:02;;;;;;;25.10;18.87;;;;;;;6.24;79.60;101890.14;1709733;82;21064;-81
2021/12/14 12:17:43;;;;;;;24.12;16.17;;;;;;;6.26;79.66;101883.70;1734064;82;21411;-81
2021/12/14 12:20:32;;;;;;;104.67;54.40;;;;;;;6.19;79.56;101878.12;1734363;82;21559;-81